sensor_id;sensor_type;location;lat;lon;timestamp;P1;durP1;ratioP1;P2;durP2;ratioP2
7515;SDS011;3799;47.184;8.538;2023-07-30T00:01:46;3.45;;;1.30;;
7515;SDS011;3799;47.184;8.538;2023-07-30T00:04:14;2.60;;;1.15;;
7515;SDS011;3799;47.184;8.538;2023-07-30T00:06:42;2.67;;;1.40;;
7515;SDS011;3799;47.184;8.538;2023-07-30T00:09:09;3.97;;;1.80;;
7515;SDS011;3799;47.184;8.538;2023-07-30T00:11:38;3.45;;;1.38;;
7515;SDS011;3799;47.184;8.538;2023-07-30T00:14:06;3.92;;;1.65;;
7515;SDS011;3799;47.184;8.538;2023-07-30T00:16:33;4.72;;;1.35;;
7515;SDS011;3799;47.184;8.538;2023-07-30T00:19:08;3.78;;;1.35;;
7515;SDS011;3799;47.184;8.538;2023-07-30T00:21:35;3.28;;;1.10;;
7515;SDS011;3799;47.184;8.538;2023-07-30T00:24:03;3.65;;;1.48;;
7515;SDS011;3799;47.184;8.538;2023-07-30T00:26:30;3.17;;;1.40;;
7515;SDS011;3799;47.184;8.538;2023-07-30T00:28:57;4.50;;;1.73;;
7515;SDS011;3799;47.184;8.538;2023-07-30T00:31:24;3.40;;;1.55;;
7515;SDS011;3799;47.184;8.538;2023-07-30T00:33:52;5.15;;;1.50;;
7515;SDS011;3799;47.184;8.538;2023-07-30T00:36:19;5.38;;;1.70;;
7515;SDS011;3799;47.184;8.538;2023-07-30T00:38:46;3.72;;;1.58;;
7515;SDS011;3799;47.184;8.538;2023-07-30T00:41:13;3.40;;;1.50;;
7515;SDS011;3799;47.184;8.538;2023-07-30T00:43:40;5.05;;;1.38;;
7515;SDS011;3799;47.184;8.538;2023-07-30T00:46:12;3.78;;;1.40;;
7515;SDS011;3799;47.184;8.538;2023-07-30T00:48:42;3.42;;;1.17;;
7515;SDS011;3799;47.184;8.538;2023-07-30T00:51:13;2.83;;;1.30;;
7515;SDS011;3799;47.184;8.538;2023-07-30T00:53:41;2.85;;;1.42;;
7515;SDS011;3799;47.184;8.538;2023-07-30T00:56:09;4.60;;;1.48;;
7515;SDS011;3799;47.184;8.538;2023-07-30T00:58:36;2.92;;;1.35;;
7515;SDS011;3799;47.184;8.538;2023-07-30T01:01:03;2.85;;;1.27;;
7515;SDS011;3799;47.184;8.538;2023-07-30T01:03:30;4.50;;;1.42;;
7515;SDS011;3799;47.184;8.538;2023-07-30T01:05:58;3.85;;;1.65;;
7515;SDS011;3799;47.184;8.538;2023-07-30T01:08:29;3.33;;;1.45;;
7515;SDS011;3799;47.184;8.538;2023-07-30T01:10:57;2.88;;;1.30;;
7515;SDS011;3799;47.184;8.538;2023-07-30T01:13:24;2.85;;;1.38;;
7515;SDS011;3799;47.184;8.538;2023-07-30T01:15:54;2.90;;;1.40;;
7515;SDS011;3799;47.184;8.538;2023-07-30T01:18:21;3.92;;;1.30;;
7515;SDS011;3799;47.184;8.538;2023-07-30T01:20:57;3.92;;;1.50;;
7515;SDS011;3799;47.184;8.538;2023-07-30T01:23:25;3.28;;;1.35;;
7515;SDS011;3799;47.184;8.538;2023-07-30T01:26:02;3.03;;;1.58;;
7515;SDS011;3799;47.184;8.538;2023-07-30T01:28:36;2.80;;;1.25;;
7515;SDS011;3799;47.184;8.538;2023-07-30T01:31:06;2.60;;;1.05;;
7515;SDS011;3799;47.184;8.538;2023-07-30T01:33:34;3.08;;;1.13;;
7515;SDS011;3799;47.184;8.538;2023-07-30T01:36:03;3.15;;;1.58;;
7515;SDS011;3799;47.184;8.538;2023-07-30T01:38:31;5.10;;;1.38;;
7515;SDS011;3799;47.184;8.538;2023-07-30T01:41:01;4.82;;;1.80;;
7515;SDS011;3799;47.184;8.538;2023-07-30T01:43:28;3.17;;;1.50;;
7515;SDS011;3799;47.184;8.538;2023-07-30T01:45:58;2.90;;;1.30;;
7515;SDS011;3799;47.184;8.538;2023-07-30T01:48:26;2.88;;;1.35;;
7515;SDS011;3799;47.184;8.538;2023-07-30T01:50:56;3.25;;;1.50;;
7515;SDS011;3799;47.184;8.538;2023-07-30T01:53:23;3.20;;;1.58;;
7515;SDS011;3799;47.184;8.538;2023-07-30T01:55:50;3.13;;;1.40;;
7515;SDS011;3799;47.184;8.538;2023-07-30T01:58:17;3.67;;;1.60;;
7515;SDS011;3799;47.184;8.538;2023-07-30T02:00:45;2.75;;;1.48;;
7515;SDS011;3799;47.184;8.538;2023-07-30T02:03:12;3.40;;;1.63;;
7515;SDS011;3799;47.184;8.538;2023-07-30T02:05:40;4.03;;;1.65;;
7515;SDS011;3799;47.184;8.538;2023-07-30T02:08:07;2.75;;;1.40;;
7515;SDS011;3799;47.184;8.538;2023-07-30T02:10:35;4.15;;;1.40;;
7515;SDS011;3799;47.184;8.538;2023-07-30T02:13:03;4.22;;;1.30;;
7515;SDS011;3799;47.184;8.538;2023-07-30T02:15:30;2.83;;;1.33;;
7515;SDS011;3799;47.184;8.538;2023-07-30T02:17:57;4.18;;;1.50;;
7515;SDS011;3799;47.184;8.538;2023-07-30T02:20:25;3.15;;;1.70;;
7515;SDS011;3799;47.184;8.538;2023-07-30T02:22:52;3.60;;;1.75;;
7515;SDS011;3799;47.184;8.538;2023-07-30T02:25:22;2.80;;;1.27;;
7515;SDS011;3799;47.184;8.538;2023-07-30T02:27:50;5.15;;;1.55;;
7515;SDS011;3799;47.184;8.538;2023-07-30T02:30:17;4.20;;;1.58;;
7515;SDS011;3799;47.184;8.538;2023-07-30T02:32:44;3.30;;;1.42;;
7515;SDS011;3799;47.184;8.538;2023-07-30T02:35:12;4.30;;;1.70;;
7515;SDS011;3799;47.184;8.538;2023-07-30T02:37:39;3.83;;;1.90;;
7515;SDS011;3799;47.184;8.538;2023-07-30T02:40:06;3.40;;;1.70;;
7515;SDS011;3799;47.184;8.538;2023-07-30T02:42:38;3.15;;;1.70;;
7515;SDS011;3799;47.184;8.538;2023-07-30T02:47:36;4.45;;;2.13;;
7515;SDS011;3799;47.184;8.538;2023-07-30T02:50:04;3.60;;;1.75;;
7515;SDS011;3799;47.184;8.538;2023-07-30T02:52:32;4.82;;;1.95;;
7515;SDS011;3799;47.184;8.538;2023-07-30T02:55:00;3.20;;;1.85;;
7515;SDS011;3799;47.184;8.538;2023-07-30T02:57:29;3.83;;;1.73;;
7515;SDS011;3799;47.184;8.538;2023-07-30T02:59:56;3.28;;;1.75;;
7515;SDS011;3799;47.184;8.538;2023-07-30T03:02:24;4.03;;;1.80;;
7515;SDS011;3799;47.184;8.538;2023-07-30T03:04:51;3.65;;;1.92;;
7515;SDS011;3799;47.184;8.538;2023-07-30T03:07:22;4.45;;;1.90;;
7515;SDS011;3799;47.184;8.538;2023-07-30T03:09:51;3.15;;;1.67;;
7515;SDS011;3799;47.184;8.538;2023-07-30T03:12:20;3.45;;;1.83;;
7515;SDS011;3799;47.184;8.538;2023-07-30T03:14:47;3.42;;;1.88;;
7515;SDS011;3799;47.184;8.538;2023-07-30T03:17:31;3.10;;;1.63;;
7515;SDS011;3799;47.184;8.538;2023-07-30T03:19:58;2.72;;;1.65;;
7515;SDS011;3799;47.184;8.538;2023-07-30T03:22:28;7.75;;;2.05;;
7515;SDS011;3799;47.184;8.538;2023-07-30T03:24:55;3.85;;;1.58;;
7515;SDS011;3799;47.184;8.538;2023-07-30T03:27:24;4.50;;;2.10;;
7515;SDS011;3799;47.184;8.538;2023-07-30T03:29:51;6.10;;;2.10;;
7515;SDS011;3799;47.184;8.538;2023-07-30T03:32:19;5.30;;;1.65;;
7515;SDS011;3799;47.184;8.538;2023-07-30T03:34:47;5.35;;;1.70;;
7515;SDS011;3799;47.184;8.538;2023-07-30T03:37:14;5.50;;;2.22;;
7515;SDS011;3799;47.184;8.538;2023-07-30T03:39:41;2.72;;;1.70;;
7515;SDS011;3799;47.184;8.538;2023-07-30T03:42:08;3.25;;;1.73;;
7515;SDS011;3799;47.184;8.538;2023-07-30T03:44:36;3.17;;;1.77;;
7515;SDS011;3799;47.184;8.538;2023-07-30T03:47:03;4.38;;;1.70;;
7515;SDS011;3799;47.184;8.538;2023-07-30T03:49:30;4.30;;;2.05;;
7515;SDS011;3799;47.184;8.538;2023-07-30T03:52:01;3.53;;;1.92;;
7515;SDS011;3799;47.184;8.538;2023-07-30T03:54:28;3.13;;;1.63;;
7515;SDS011;3799;47.184;8.538;2023-07-30T03:56:56;3.10;;;1.75;;
7515;SDS011;3799;47.184;8.538;2023-07-30T03:59:23;4.15;;;1.85;;
7515;SDS011;3799;47.184;8.538;2023-07-30T04:01:50;3.50;;;2.05;;
7515;SDS011;3799;47.184;8.538;2023-07-30T04:04:20;3.42;;;1.73;;
7515;SDS011;3799;47.184;8.538;2023-07-30T04:06:48;5.07;;;1.80;;
7515;SDS011;3799;47.184;8.538;2023-07-30T04:09:15;3.55;;;1.90;;
7515;SDS011;3799;47.184;8.538;2023-07-30T04:11:42;2.40;;;1.40;;
7515;SDS011;3799;47.184;8.538;2023-07-30T04:14:10;4.32;;;1.80;;
7515;SDS011;3799;47.184;8.538;2023-07-30T04:16:37;3.33;;;1.70;;
7515;SDS011;3799;47.184;8.538;2023-07-30T04:19:09;5.13;;;1.45;;
7515;SDS011;3799;47.184;8.538;2023-07-30T04:24:08;3.38;;;1.75;;
7515;SDS011;3799;47.184;8.538;2023-07-30T04:26:36;4.15;;;1.90;;
7515;SDS011;3799;47.184;8.538;2023-07-30T04:29:03;3.25;;;1.77;;
7515;SDS011;3799;47.184;8.538;2023-07-30T04:31:30;2.90;;;1.65;;
7515;SDS011;3799;47.184;8.538;2023-07-30T04:33:59;4.97;;;1.73;;
7515;SDS011;3799;47.184;8.538;2023-07-30T04:36:26;4.10;;;1.50;;
7515;SDS011;3799;47.184;8.538;2023-07-30T04:38:56;3.30;;;1.58;;
7515;SDS011;3799;47.184;8.538;2023-07-30T04:41:24;3.08;;;1.58;;
7515;SDS011;3799;47.184;8.538;2023-07-30T04:43:51;2.70;;;1.45;;
7515;SDS011;3799;47.184;8.538;2023-07-30T04:46:20;3.83;;;1.40;;
7515;SDS011;3799;47.184;8.538;2023-07-30T04:48:47;5.75;;;1.67;;
7515;SDS011;3799;47.184;8.538;2023-07-30T04:51:15;2.88;;;1.50;;
7515;SDS011;3799;47.184;8.538;2023-07-30T04:53:42;4.90;;;1.40;;
7515;SDS011;3799;47.184;8.538;2023-07-30T04:56:09;3.45;;;1.48;;
7515;SDS011;3799;47.184;8.538;2023-07-30T04:58:36;3.00;;;1.40;;
7515;SDS011;3799;47.184;8.538;2023-07-30T05:03:49;2.63;;;1.33;;
7515;SDS011;3799;47.184;8.538;2023-07-30T05:06:16;2.63;;;0.98;;
7515;SDS011;3799;47.184;8.538;2023-07-30T05:08:43;3.75;;;1.15;;
7515;SDS011;3799;47.184;8.538;2023-07-30T05:11:10;3.33;;;1.25;;
7515;SDS011;3799;47.184;8.538;2023-07-30T05:13:38;2.92;;;1.30;;
7515;SDS011;3799;47.184;8.538;2023-07-30T05:16:07;3.15;;;1.20;;
7515;SDS011;3799;47.184;8.538;2023-07-30T05:18:35;4.80;;;1.45;;
7515;SDS011;3799;47.184;8.538;2023-07-30T05:21:02;2.50;;;1.27;;
7515;SDS011;3799;47.184;8.538;2023-07-30T05:23:29;3.38;;;0.93;;
7515;SDS011;3799;47.184;8.538;2023-07-30T05:25:56;2.72;;;1.40;;
7515;SDS011;3799;47.184;8.538;2023-07-30T05:28:23;2.30;;;1.10;;
7515;SDS011;3799;47.184;8.538;2023-07-30T05:30:56;3.30;;;1.17;;
7515;SDS011;3799;47.184;8.538;2023-07-30T05:33:26;2.58;;;1.10;;
7515;SDS011;3799;47.184;8.538;2023-07-30T05:35:53;2.63;;;1.25;;
7515;SDS011;3799;47.184;8.538;2023-07-30T05:38:21;3.15;;;1.30;;
7515;SDS011;3799;47.184;8.538;2023-07-30T05:40:48;4.55;;;1.20;;
7515;SDS011;3799;47.184;8.538;2023-07-30T05:43:15;2.50;;;1.13;;
7515;SDS011;3799;47.184;8.538;2023-07-30T05:45:43;2.47;;;1.13;;
7515;SDS011;3799;47.184;8.538;2023-07-30T05:48:13;3.75;;;1.17;;
7515;SDS011;3799;47.184;8.538;2023-07-30T05:50:40;5.18;;;1.30;;
7515;SDS011;3799;47.184;8.538;2023-07-30T05:53:07;4.53;;;1.45;;
7515;SDS011;3799;47.184;8.538;2023-07-30T05:55:34;2.30;;;1.17;;
7515;SDS011;3799;47.184;8.538;2023-07-30T05:58:01;4.13;;;1.52;;
7515;SDS011;3799;47.184;8.538;2023-07-30T06:00:31;3.22;;;1.20;;
7515;SDS011;3799;47.184;8.538;2023-07-30T06:03:02;2.47;;;1.08;;
7515;SDS011;3799;47.184;8.538;2023-07-30T06:05:30;2.20;;;1.17;;
7515;SDS011;3799;47.184;8.538;2023-07-30T06:07:57;2.50;;;1.33;;
7515;SDS011;3799;47.184;8.538;2023-07-30T06:10:26;3.13;;;1.30;;
7515;SDS011;3799;47.184;8.538;2023-07-30T06:12:53;2.83;;;1.50;;
7515;SDS011;3799;47.184;8.538;2023-07-30T06:15:20;3.20;;;1.50;;
7515;SDS011;3799;47.184;8.538;2023-07-30T06:17:47;2.13;;;0.98;;
7515;SDS011;3799;47.184;8.538;2023-07-30T06:20:14;3.08;;;1.45;;
7515;SDS011;3799;47.184;8.538;2023-07-30T06:22:42;2.75;;;1.20;;
7515;SDS011;3799;47.184;8.538;2023-07-30T06:25:09;2.28;;;1.05;;
7515;SDS011;3799;47.184;8.538;2023-07-30T06:27:36;2.88;;;1.30;;
7515;SDS011;3799;47.184;8.538;2023-07-30T06:30:04;2.70;;;1.38;;
7515;SDS011;3799;47.184;8.538;2023-07-30T06:32:31;3.75;;;1.10;;
7515;SDS011;3799;47.184;8.538;2023-07-30T06:34:59;3.45;;;0.90;;
7515;SDS011;3799;47.184;8.538;2023-07-30T06:37:26;1.85;;;0.90;;
7515;SDS011;3799;47.184;8.538;2023-07-30T06:39:54;2.30;;;1.02;;
7515;SDS011;3799;47.184;8.538;2023-07-30T06:42:24;2.22;;;1.00;;
7515;SDS011;3799;47.184;8.538;2023-07-30T06:44:51;2.30;;;1.02;;
7515;SDS011;3799;47.184;8.538;2023-07-30T06:47:18;2.47;;;0.90;;
7515;SDS011;3799;47.184;8.538;2023-07-30T06:49:45;3.58;;;1.00;;
7515;SDS011;3799;47.184;8.538;2023-07-30T06:52:13;1.70;;;0.80;;
7515;SDS011;3799;47.184;8.538;2023-07-30T06:54:40;3.92;;;1.40;;
7515;SDS011;3799;47.184;8.538;2023-07-30T06:57:07;2.00;;;0.80;;
7515;SDS011;3799;47.184;8.538;2023-07-30T06:59:34;2.55;;;0.93;;
7515;SDS011;3799;47.184;8.538;2023-07-30T07:02:02;2.25;;;0.90;;
7515;SDS011;3799;47.184;8.538;2023-07-30T07:04:29;2.45;;;1.17;;
7515;SDS011;3799;47.184;8.538;2023-07-30T07:06:56;2.80;;;0.98;;
7515;SDS011;3799;47.184;8.538;2023-07-30T07:09:27;3.35;;;1.30;;
7515;SDS011;3799;47.184;8.538;2023-07-30T07:11:54;2.65;;;0.98;;
7515;SDS011;3799;47.184;8.538;2023-07-30T07:14:21;2.38;;;1.02;;
7515;SDS011;3799;47.184;8.538;2023-07-30T07:16:48;2.38;;;0.77;;
7515;SDS011;3799;47.184;8.538;2023-07-30T07:19:16;3.58;;;1.48;;
7515;SDS011;3799;47.184;8.538;2023-07-30T07:21:43;2.83;;;1.08;;
7515;SDS011;3799;47.184;8.538;2023-07-30T07:24:15;2.80;;;1.25;;
7515;SDS011;3799;47.184;8.538;2023-07-30T07:26:43;2.63;;;1.00;;
7515;SDS011;3799;47.184;8.538;2023-07-30T07:29:11;2.20;;;0.82;;
7515;SDS011;3799;47.184;8.538;2023-07-30T07:31:38;2.80;;;1.10;;
7515;SDS011;3799;47.184;8.538;2023-07-30T07:34:06;3.28;;;1.00;;
7515;SDS011;3799;47.184;8.538;2023-07-30T07:36:37;2.00;;;0.93;;
7515;SDS011;3799;47.184;8.538;2023-07-30T07:39:04;3.20;;;1.42;;
7515;SDS011;3799;47.184;8.538;2023-07-30T07:41:34;3.05;;;1.30;;
7515;SDS011;3799;47.184;8.538;2023-07-30T07:44:02;2.15;;;0.98;;
7515;SDS011;3799;47.184;8.538;2023-07-30T07:46:30;5.65;;;1.40;;
7515;SDS011;3799;47.184;8.538;2023-07-30T07:48:58;2.45;;;1.10;;
7515;SDS011;3799;47.184;8.538;2023-07-30T07:51:27;2.42;;;1.13;;
7515;SDS011;3799;47.184;8.538;2023-07-30T07:53:55;1.92;;;0.85;;
7515;SDS011;3799;47.184;8.538;2023-07-30T07:56:22;4.03;;;1.25;;
7515;SDS011;3799;47.184;8.538;2023-07-30T07:58:49;4.55;;;1.05;;
7515;SDS011;3799;47.184;8.538;2023-07-30T08:01:16;3.40;;;1.40;;
7515;SDS011;3799;47.184;8.538;2023-07-30T08:03:44;2.85;;;1.30;;
7515;SDS011;3799;47.184;8.538;2023-07-30T08:06:11;3.13;;;1.33;;
7515;SDS011;3799;47.184;8.538;2023-07-30T08:08:38;5.00;;;1.60;;
7515;SDS011;3799;47.184;8.538;2023-07-30T08:11:06;2.92;;;1.27;;
7515;SDS011;3799;47.184;8.538;2023-07-30T08:13:41;2.70;;;1.33;;
7515;SDS011;3799;47.184;8.538;2023-07-30T08:16:08;3.83;;;2.10;;
7515;SDS011;3799;47.184;8.538;2023-07-30T08:18:36;2.60;;;1.10;;
7515;SDS011;3799;47.184;8.538;2023-07-30T08:21:03;2.45;;;1.15;;
7515;SDS011;3799;47.184;8.538;2023-07-30T08:23:31;2.22;;;1.00;;
7515;SDS011;3799;47.184;8.538;2023-07-30T08:25:59;3.65;;;1.40;;
7515;SDS011;3799;47.184;8.538;2023-07-30T08:28:26;2.45;;;1.02;;
7515;SDS011;3799;47.184;8.538;2023-07-30T08:31:01;2.65;;;1.00;;
7515;SDS011;3799;47.184;8.538;2023-07-30T08:33:31;2.85;;;1.10;;
7515;SDS011;3799;47.184;8.538;2023-07-30T08:35:59;3.03;;;1.10;;
7515;SDS011;3799;47.184;8.538;2023-07-30T08:38:31;2.03;;;0.88;;
7515;SDS011;3799;47.184;8.538;2023-07-30T08:40:59;2.85;;;0.75;;
7515;SDS011;3799;47.184;8.538;2023-07-30T08:43:26;2.22;;;0.98;;
7515;SDS011;3799;47.184;8.538;2023-07-30T08:45:53;2.88;;;1.08;;
7515;SDS011;3799;47.184;8.538;2023-07-30T08:48:21;2.70;;;0.93;;
7515;SDS011;3799;47.184;8.538;2023-07-30T08:50:48;2.50;;;1.17;;
7515;SDS011;3799;47.184;8.538;2023-07-30T08:53:16;3.40;;;1.17;;
7515;SDS011;3799;47.184;8.538;2023-07-30T08:55:45;2.90;;;1.00;;
7515;SDS011;3799;47.184;8.538;2023-07-30T08:58:12;3.22;;;0.90;;
7515;SDS011;3799;47.184;8.538;2023-07-30T09:00:41;3.03;;;1.10;;
7515;SDS011;3799;47.184;8.538;2023-07-30T09:03:09;2.20;;;1.10;;
7515;SDS011;3799;47.184;8.538;2023-07-30T09:05:38;2.83;;;1.00;;
7515;SDS011;3799;47.184;8.538;2023-07-30T09:08:06;3.63;;;1.20;;
7515;SDS011;3799;47.184;8.538;2023-07-30T09:10:34;1.98;;;1.05;;
7515;SDS011;3799;47.184;8.538;2023-07-30T09:13:02;5.13;;;1.10;;
7515;SDS011;3799;47.184;8.538;2023-07-30T09:15:30;2.45;;;1.05;;
7515;SDS011;3799;47.184;8.538;2023-07-30T09:17:59;4.22;;;1.17;;
7515;SDS011;3799;47.184;8.538;2023-07-30T09:20:27;1.90;;;0.73;;
7515;SDS011;3799;47.184;8.538;2023-07-30T09:23:08;1.80;;;0.73;;
7515;SDS011;3799;47.184;8.538;2023-07-30T09:25:36;2.33;;;0.93;;
7515;SDS011;3799;47.184;8.538;2023-07-30T09:28:08;1.65;;;0.52;;
7515;SDS011;3799;47.184;8.538;2023-07-30T09:30:37;2.35;;;0.85;;
7515;SDS011;3799;47.184;8.538;2023-07-30T09:33:04;2.15;;;0.70;;
7515;SDS011;3799;47.184;8.538;2023-07-30T09:35:32;1.80;;;0.75;;
7515;SDS011;3799;47.184;8.538;2023-07-30T09:38:06;3.20;;;1.23;;
7515;SDS011;3799;47.184;8.538;2023-07-30T09:40:35;2.15;;;0.93;;
7515;SDS011;3799;47.184;8.538;2023-07-30T09:43:04;2.22;;;1.00;;
7515;SDS011;3799;47.184;8.538;2023-07-30T09:45:36;2.13;;;0.88;;
7515;SDS011;3799;47.184;8.538;2023-07-30T09:48:06;2.00;;;0.75;;
7515;SDS011;3799;47.184;8.538;2023-07-30T09:50:33;1.98;;;0.93;;
7515;SDS011;3799;47.184;8.538;2023-07-30T09:53:02;1.80;;;0.95;;
7515;SDS011;3799;47.184;8.538;2023-07-30T09:55:30;2.15;;;0.85;;
7515;SDS011;3799;47.184;8.538;2023-07-30T09:57:58;1.73;;;0.60;;
7515;SDS011;3799;47.184;8.538;2023-07-30T10:00:26;2.15;;;0.75;;
7515;SDS011;3799;47.184;8.538;2023-07-30T10:02:55;1.95;;;0.65;;
7515;SDS011;3799;47.184;8.538;2023-07-30T10:05:27;1.95;;;0.70;;
7515;SDS011;3799;47.184;8.538;2023-07-30T10:08:00;2.30;;;0.80;;
7515;SDS011;3799;47.184;8.538;2023-07-30T10:10:34;2.95;;;0.60;;
7515;SDS011;3799;47.184;8.538;2023-07-30T10:13:03;1.50;;;0.32;;
7515;SDS011;3799;47.184;8.538;2023-07-30T10:15:34;3.08;;;0.88;;
7515;SDS011;3799;47.184;8.538;2023-07-30T10:18:02;2.90;;;0.70;;
7515;SDS011;3799;47.184;8.538;2023-07-30T10:20:31;1.95;;;0.60;;
7515;SDS011;3799;47.184;8.538;2023-07-30T10:22:59;1.90;;;0.63;;
7515;SDS011;3799;47.184;8.538;2023-07-30T10:25:41;3.22;;;1.15;;
7515;SDS011;3799;47.184;8.538;2023-07-30T10:28:26;2.60;;;0.40;;
7515;SDS011;3799;47.184;8.538;2023-07-30T10:30:58;1.45;;;0.60;;
7515;SDS011;3799;47.184;8.538;2023-07-30T10:34:10;2.58;;;0.73;;
7515;SDS011;3799;47.184;8.538;2023-07-30T10:36:33;1.90;;;0.60;;
7515;SDS011;3799;47.184;8.538;2023-07-30T10:39:10;5.65;;;0.85;;
7515;SDS011;3799;47.184;8.538;2023-07-30T10:46:54;2.17;;;0.75;;
7515;SDS011;3799;47.184;8.538;2023-07-30T10:49:23;1.60;;;0.60;;
7515;SDS011;3799;47.184;8.538;2023-07-30T10:51:51;2.72;;;0.88;;
7515;SDS011;3799;47.184;8.538;2023-07-30T10:54:19;2.10;;;0.80;;
7515;SDS011;3799;47.184;8.538;2023-07-30T10:56:49;2.55;;;0.80;;
7515;SDS011;3799;47.184;8.538;2023-07-30T10:59:17;1.50;;;0.68;;
7515;SDS011;3799;47.184;8.538;2023-07-30T11:01:46;2.75;;;0.73;;
7515;SDS011;3799;47.184;8.538;2023-07-30T11:04:14;1.63;;;0.52;;
7515;SDS011;3799;47.184;8.538;2023-07-30T11:06:46;2.25;;;0.80;;
7515;SDS011;3799;47.184;8.538;2023-07-30T11:09:33;2.17;;;0.70;;
7515;SDS011;3799;47.184;8.538;2023-07-30T11:12:03;1.52;;;0.50;;
7515;SDS011;3799;47.184;8.538;2023-07-30T11:14:30;1.58;;;0.68;;
7515;SDS011;3799;47.184;8.538;2023-07-30T11:16:58;2.70;;;0.80;;
7515;SDS011;3799;47.184;8.538;2023-07-30T11:19:35;2.38;;;0.70;;
7515;SDS011;3799;47.184;8.538;2023-07-30T11:22:10;1.63;;;0.55;;
7515;SDS011;3799;47.184;8.538;2023-07-30T11:24:37;3.15;;;0.52;;
7515;SDS011;3799;47.184;8.538;2023-07-30T11:27:05;1.45;;;0.80;;
7515;SDS011;3799;47.184;8.538;2023-07-30T11:29:37;2.08;;;0.80;;
7515;SDS011;3799;47.184;8.538;2023-07-30T11:32:05;1.83;;;0.75;;
7515;SDS011;3799;47.184;8.538;2023-07-30T11:34:33;1.85;;;0.68;;
7515;SDS011;3799;47.184;8.538;2023-07-30T11:37:05;1.75;;;0.52;;
7515;SDS011;3799;47.184;8.538;2023-07-30T11:39:33;2.10;;;0.73;;
7515;SDS011;3799;47.184;8.538;2023-07-30T11:42:00;2.00;;;0.63;;
7515;SDS011;3799;47.184;8.538;2023-07-30T11:44:31;2.10;;;0.80;;
7515;SDS011;3799;47.184;8.538;2023-07-30T11:47:01;1.38;;;0.55;;
7515;SDS011;3799;47.184;8.538;2023-07-30T11:49:30;1.77;;;0.68;;
7515;SDS011;3799;47.184;8.538;2023-07-30T11:52:04;1.08;;;0.40;;
7515;SDS011;3799;47.184;8.538;2023-07-30T11:54:35;1.63;;;0.80;;
7515;SDS011;3799;47.184;8.538;2023-07-30T11:57:03;1.42;;;0.60;;
7515;SDS011;3799;47.184;8.538;2023-07-30T11:59:30;2.45;;;0.60;;
7515;SDS011;3799;47.184;8.538;2023-07-30T12:01:58;1.38;;;0.60;;
7515;SDS011;3799;47.184;8.538;2023-07-30T12:04:29;4.40;;;0.80;;
7515;SDS011;3799;47.184;8.538;2023-07-30T12:07:39;1.17;;;0.40;;
7515;SDS011;3799;47.184;8.538;2023-07-30T12:10:08;1.95;;;0.75;;
7515;SDS011;3799;47.184;8.538;2023-07-30T12:12:36;2.38;;;0.57;;
7515;SDS011;3799;47.184;8.538;2023-07-30T12:15:10;2.10;;;0.70;;
7515;SDS011;3799;47.184;8.538;2023-07-30T12:17:38;2.65;;;0.80;;
7515;SDS011;3799;47.184;8.538;2023-07-30T12:20:06;3.45;;;0.60;;
7515;SDS011;3799;47.184;8.538;2023-07-30T12:22:34;2.00;;;0.50;;
7515;SDS011;3799;47.184;8.538;2023-07-30T12:25:02;2.05;;;0.75;;
7515;SDS011;3799;47.184;8.538;2023-07-30T12:27:32;1.77;;;0.68;;
7515;SDS011;3799;47.184;8.538;2023-07-30T12:29:59;1.80;;;0.70;;
7515;SDS011;3799;47.184;8.538;2023-07-30T12:32:26;2.05;;;0.50;;
7515;SDS011;3799;47.184;8.538;2023-07-30T12:34:55;2.10;;;0.90;;
7515;SDS011;3799;47.184;8.538;2023-07-30T12:37:22;2.00;;;0.82;;
7515;SDS011;3799;47.184;8.538;2023-07-30T12:39:49;2.00;;;0.73;;
7515;SDS011;3799;47.184;8.538;2023-07-30T12:42:16;2.45;;;0.80;;
7515;SDS011;3799;47.184;8.538;2023-07-30T12:44:43;1.48;;;0.52;;
7515;SDS011;3799;47.184;8.538;2023-07-30T12:47:13;2.22;;;0.70;;
7515;SDS011;3799;47.184;8.538;2023-07-30T12:49:40;1.50;;;0.60;;
7515;SDS011;3799;47.184;8.538;2023-07-30T12:52:07;2.58;;;0.90;;
7515;SDS011;3799;47.184;8.538;2023-07-30T12:54:35;2.53;;;1.08;;
7515;SDS011;3799;47.184;8.538;2023-07-30T12:57:02;3.47;;;0.75;;
7515;SDS011;3799;47.184;8.538;2023-07-30T12:59:29;1.90;;;0.80;;
7515;SDS011;3799;47.184;8.538;2023-07-30T13:01:57;4.35;;;1.13;;
7515;SDS011;3799;47.184;8.538;2023-07-30T13:04:31;2.88;;;0.75;;
7515;SDS011;3799;47.184;8.538;2023-07-30T13:06:58;3.15;;;0.82;;
7515;SDS011;3799;47.184;8.538;2023-07-30T13:09:25;2.47;;;0.90;;
7515;SDS011;3799;47.184;8.538;2023-07-30T13:11:52;2.40;;;1.02;;
7515;SDS011;3799;47.184;8.538;2023-07-30T13:14:19;4.53;;;1.13;;
7515;SDS011;3799;47.184;8.538;2023-07-30T13:16:47;2.22;;;0.75;;
7515;SDS011;3799;47.184;8.538;2023-07-30T13:19:14;2.65;;;1.00;;
7515;SDS011;3799;47.184;8.538;2023-07-30T13:21:41;1.65;;;0.75;;
7515;SDS011;3799;47.184;8.538;2023-07-30T13:24:08;1.73;;;0.80;;
7515;SDS011;3799;47.184;8.538;2023-07-30T13:26:35;2.47;;;0.80;;
7515;SDS011;3799;47.184;8.538;2023-07-30T13:29:03;1.90;;;0.75;;
7515;SDS011;3799;47.184;8.538;2023-07-30T13:31:30;2.10;;;0.80;;
7515;SDS011;3799;47.184;8.538;2023-07-30T13:33:57;2.00;;;0.95;;
7515;SDS011;3799;47.184;8.538;2023-07-30T13:36:24;2.33;;;0.90;;
7515;SDS011;3799;47.184;8.538;2023-07-30T13:39:01;2.80;;;0.73;;
7515;SDS011;3799;47.184;8.538;2023-07-30T13:41:28;1.42;;;0.65;;
7515;SDS011;3799;47.184;8.538;2023-07-30T13:43:55;3.17;;;0.80;;
7515;SDS011;3799;47.184;8.538;2023-07-30T13:46:22;1.80;;;0.77;;
7515;SDS011;3799;47.184;8.538;2023-07-30T13:48:50;2.20;;;1.00;;
7515;SDS011;3799;47.184;8.538;2023-07-30T13:51:17;2.97;;;1.30;;
7515;SDS011;3799;47.184;8.538;2023-07-30T13:53:44;1.70;;;0.70;;
7515;SDS011;3799;47.184;8.538;2023-07-30T13:56:12;1.85;;;0.75;;
7515;SDS011;3799;47.184;8.538;2023-07-30T13:58:50;1.92;;;0.90;;
7515;SDS011;3799;47.184;8.538;2023-07-30T14:01:17;1.92;;;0.90;;
7515;SDS011;3799;47.184;8.538;2023-07-30T14:03:49;2.88;;;1.10;;
7515;SDS011;3799;47.184;8.538;2023-07-30T14:06:16;2.65;;;0.90;;
7515;SDS011;3799;47.184;8.538;2023-07-30T14:08:44;2.33;;;0.80;;
7515;SDS011;3799;47.184;8.538;2023-07-30T14:11:11;2.72;;;1.10;;
7515;SDS011;3799;47.184;8.538;2023-07-30T14:13:50;2.28;;;1.02;;
7515;SDS011;3799;47.184;8.538;2023-07-30T14:16:17;3.22;;;1.08;;
7515;SDS011;3799;47.184;8.538;2023-07-30T14:18:44;2.85;;;1.02;;
7515;SDS011;3799;47.184;8.538;2023-07-30T14:21:11;1.90;;;0.90;;
7515;SDS011;3799;47.184;8.538;2023-07-30T14:23:40;2.70;;;1.35;;
7515;SDS011;3799;47.184;8.538;2023-07-30T14:26:07;1.98;;;0.95;;
7515;SDS011;3799;47.184;8.538;2023-07-30T14:28:34;1.85;;;0.90;;
7515;SDS011;3799;47.184;8.538;2023-07-30T14:31:02;3.30;;;0.85;;
7515;SDS011;3799;47.184;8.538;2023-07-30T14:33:30;2.92;;;1.15;;
7515;SDS011;3799;47.184;8.538;2023-07-30T14:35:58;1.73;;;0.73;;
7515;SDS011;3799;47.184;8.538;2023-07-30T14:38:25;2.33;;;0.90;;
7515;SDS011;3799;47.184;8.538;2023-07-30T14:40:53;3.97;;;0.90;;
7515;SDS011;3799;47.184;8.538;2023-07-30T14:43:25;3.28;;;0.90;;
7515;SDS011;3799;47.184;8.538;2023-07-30T14:45:52;1.85;;;0.98;;
7515;SDS011;3799;47.184;8.538;2023-07-30T14:48:21;2.08;;;0.88;;
7515;SDS011;3799;47.184;8.538;2023-07-30T14:50:49;2.85;;;0.95;;
7515;SDS011;3799;47.184;8.538;2023-07-30T14:53:16;2.17;;;1.05;;
7515;SDS011;3799;47.184;8.538;2023-07-30T14:55:44;2.13;;;1.00;;
7515;SDS011;3799;47.184;8.538;2023-07-30T14:58:13;3.33;;;0.95;;
7515;SDS011;3799;47.184;8.538;2023-07-30T15:00:48;2.70;;;1.13;;
7515;SDS011;3799;47.184;8.538;2023-07-30T15:03:16;2.72;;;1.15;;
7515;SDS011;3799;47.184;8.538;2023-07-30T15:05:43;2.15;;;1.00;;
7515;SDS011;3799;47.184;8.538;2023-07-30T15:08:11;3.22;;;0.90;;
7515;SDS011;3799;47.184;8.538;2023-07-30T15:10:38;2.22;;;1.08;;
7515;SDS011;3799;47.184;8.538;2023-07-30T15:13:06;2.75;;;0.88;;
7515;SDS011;3799;47.184;8.538;2023-07-30T15:15:33;2.40;;;1.00;;
7515;SDS011;3799;47.184;8.538;2023-07-30T15:18:03;1.70;;;0.55;;
7515;SDS011;3799;47.184;8.538;2023-07-30T15:20:34;3.00;;;1.35;;
7515;SDS011;3799;47.184;8.538;2023-07-30T15:23:01;2.63;;;0.82;;
7515;SDS011;3799;47.184;8.538;2023-07-30T15:25:28;2.10;;;0.68;;
7515;SDS011;3799;47.184;8.538;2023-07-30T15:27:56;2.25;;;0.93;;
7515;SDS011;3799;47.184;8.538;2023-07-30T15:30:24;2.55;;;0.90;;
7515;SDS011;3799;47.184;8.538;2023-07-30T15:32:51;1.67;;;0.70;;
7515;SDS011;3799;47.184;8.538;2023-07-30T15:35:19;2.42;;;0.82;;
7515;SDS011;3799;47.184;8.538;2023-07-30T15:37:46;2.33;;;0.80;;